Time;durP1;ratioP1;P1;durP2;ratioP2;P2;SDS_P1;SDS_P2;PMS_P1;PMS_P2;Temp;Humidity;BMP_temperature;BMP_pressure;BME280_temperature;BME280_humidity;BME280_pressure;Samples;Min_cycle;Max_cycle;Signal;HPM_P1;HPM_P2
2022/04/11 00:01:20;;;;;;;;;8.50;7.25;;;;;9.80;69.63;101225.94;5078194;27;45330;-61
2022/04/11 00:03:46;;;;;;;;;8.25;6.50;;;;;9.78;71.67;101219.91;5077685;27;45625;-61
2022/04/11 00:06:11;;;;;;;;;9.00;8.00;;;;;9.75;70.24;101217.38;5078307;28;45592;-61
2022/04/11 00:08:38;;;;;;;;;10.00;7.00;;;;;9.75;69.56;101214.78;5078151;27;45411;-61
2022/04/11 00:11:03;;;;;;;;;12.75;7.50;;;;;9.72;70.24;101218.28;5078234;28;45665;-62
2022/04/11 00:13:29;;;;;;;;;11.00;7.50;;;;;9.67;69.69;101204.53;5077818;27;46462;-66
2022/04/11 00:15:54;;;;;;;;;9.00;9.00;;;;;9.70;69.79;101206.22;5079838;27;45279;-62
2022/04/11 00:18:19;;;;;;;;;11.00;6.75;;;;;9.67;70.19;101209.72;5080134;27;45476;-62
2022/04/11 00:20:47;;;;;;;;;12.00;8.00;;;;;9.67;69.77;101214.06;5080248;27;45532;-62
2022/04/11 00:23:12;;;;;;;;;9.00;6.25;;;;;9.64;69.52;101204.59;5080009;27;45294;-64
2022/04/11 00:25:38;;;;;;;;;8.75;6.50;;;;;9.64;69.94;101203.72;5080269;27;45257;-64
2022/04/11 00:28:03;;;;;;;;;11.00;7.00;;;;;9.64;70.21;101208.91;5076058;27;45426;-63
2022/04/11 00:30:28;;;;;;;;;8.75;8.00;;;;;9.61;70.43;101207.22;5070486;28;45153;-64
2022/04/11 00:32:54;;;;;;;;;10.00;6.75;;;;;9.58;68.53;101193.41;5079809;27;45552;-64
2022/04/11 00:35:19;;;;;;;;;4.00;4.00;;;;;9.57;68.94;101189.13;5079774;27;45857;-65
2022/04/11 00:37:44;;;;;;;;;7.75;6.25;;;;;9.53;69.58;101177.09;5079907;27;45270;-63
2022/04/11 00:40:10;;;;;;;;;7.25;6.50;;;;;9.51;69.73;101168.47;5080035;27;45447;-63
2022/04/11 00:42:37;;;;;;;;;8.00;8.00;;;;;9.48;70.63;101165.94;5079940;27;45318;-64
2022/04/11 00:45:06;;;;;;;;;4.00;4.00;;;;;9.45;68.92;101164.25;5078706;28;45770;-64
2022/04/11 00:47:32;;;;;;;;;7.75;7.00;;;;;9.43;69.53;101153.91;5079367;27;45178;-63
2022/04/11 00:50:11;;;;;;;;;9.50;3.75;;;;;9.41;70.23;101149.59;5079955;27;45274;-64
2022/04/11 00:52:40;;;;;;;;;5.75;5.75;;;;;9.38;69.78;101147.91;5079676;27;45422;-64
2022/04/11 00:55:09;;;;;;;;;7.25;5.50;;;;;9.38;69.69;101147.03;5080036;27;45771;-63
2022/04/11 00:57:36;;;;;;;;;6.00;6.00;;;;;9.34;70.20;101145.38;5066493;28;45474;-62
2022/04/11 01:00:07;;;;;;;;;8.00;8.00;;;;;9.32;70.46;101140.22;5079657;28;45268;-63
2022/04/11 01:02:33;;;;;;;;;0.00;0.00;;;;;9.33;70.92;101141.09;5078646;27;45523;-63
2022/04/11 01:04:59;;;;;;;;;4.25;4.25;;;;;9.30;70.86;101135.94;5077235;27;45385;-63
2022/04/11 01:07:24;;;;;;;;;6.00;5.00;;;;;9.29;70.44;101126.47;5077558;27;45346;-63
2022/04/11 01:09:49;;;;;;;;;6.00;6.00;;;;;9.26;71.06;101127.38;5077255;27;45402;-63
2022/04/11 01:12:16;;;;;;;;;3.75;3.75;;;;;9.25;69.42;101120.47;5077086;27;45495;-63
2022/04/11 01:14:42;;;;;;;;;15.50;7.25;;;;;9.24;70.29;101115.31;5078695;27;45468;-63
2022/04/11 01:17:08;;;;;;;;;6.50;6.00;;;;;9.22;71.06;101117.06;5079554;27;45368;-64
2022/04/11 01:19:34;;;;;;;;;7.50;4.25;;;;;9.20;70.70;101111.88;5078267;28;45398;-64
2022/04/11 01:21:59;;;;;;;;;8.25;6.00;;;;;9.17;70.83;101100.72;5079607;27;45425;-64
2022/04/11 01:24:25;;;;;;;;;8.50;5.50;;;;;9.17;70.72;101108.47;5079359;27;45255;-63
2022/04/11 01:26:51;;;;;;;;;14.25;7.50;;;;;9.13;71.02;101102.50;5079489;27;45447;-63
2022/04/11 01:29:17;;;;;;;;;3.50;3.50;;;;;9.10;70.93;101095.63;5079305;27;45298;-63
2022/04/11 01:31:43;;;;;;;;;7.00;5.00;;;;;9.09;70.57;101087.88;5079477;27;46325;-63
2022/04/11 01:34:08;;;;;;;;;5.75;5.75;;;;;9.07;70.42;101089.66;5078981;27;45231;-62
2022/04/11 01:36:34;;;;;;;;;8.00;5.25;;;;;9.06;70.28;101085.34;5077343;28;45394;-63
2022/04/11 01:39:00;;;;;;;;;8.00;4.25;;;;;9.04;69.85;101089.69;5079272;27;45259;-63
2022/04/11 01:41:26;;;;;;;;;6.25;6.25;;;;;9.01;69.43;101079.34;5079497;27;45388;-63
2022/04/11 01:43:52;;;;;;;;;4.25;4.25;;;;;8.99;70.70;101083.69;5079167;27;45419;-62
2022/04/11 01:46:17;;;;;;;;;9.00;5.25;;;;;8.97;71.65;101080.28;5079249;27;45492;-63
2022/04/11 01:48:43;;;;;;;;;4.75;4.75;;;;;8.93;70.69;101074.28;5075913;28;46240;-63
2022/04/11 01:51:08;;;;;;;;;5.75;5.25;;;;;8.92;70.68;101079.50;5066320;28;46144;-63
2022/04/11 01:53:33;;;;;;;;;5.00;5.00;;;;;8.89;70.02;101069.19;5078993;27;45263;-63
2022/04/11 01:55:59;;;;;;;;;4.75;3.00;;;;;8.85;69.68;101060.59;5077704;28;45328;-63
2022/04/11 01:58:25;;;;;;;;;7.75;6.00;;;;;8.83;71.56;101062.38;5078988;27;45388;-63
2022/04/11 02:00:50;;;;;;;;;4.50;3.50;;;;;8.82;71.53;101061.50;5081331;27;45502;-63
2022/04/11 02:03:15;;;;;;;;;5.75;5.50;;;;;8.81;70.61;101058.94;5079783;27;45521;-63
2022/04/11 02:05:41;;;;;;;;;3.00;3.00;;;;;8.80;73.35;101063.25;5080351;27;45513;-64
2022/04/11 02:08:10;;;;;;;;;4.50;4.00;;;;;8.78;71.30;101059.81;5079985;27;45549;-64
2022/04/11 02:10:37;;;;;;;;;5.00;5.00;;;;;8.77;71.14;101054.66;5080028;28;46609;-64
2022/04/11 02:13:03;;;;;;;;;7.00;3.50;;;;;8.75;70.90;101054.69;5079849;27;45941;-63
2022/04/11 02:15:29;;;;;;;;;2.25;2.25;;;;;8.74;71.07;101049.53;5080532;27;45429;-64
2022/04/11 02:17:54;;;;;;;;;5.00;5.00;;;;;8.72;70.76;101051.28;5068443;27;45513;-63
2022/04/11 02:20:20;;;;;;;;;5.00;2.50;;;;;8.70;71.16;101051.31;5082136;27;46217;-63
2022/04/11 02:22:49;;;;;;;;;7.50;5.25;;;;;8.71;71.74;101047.00;5082240;27;45786;-63
2022/04/11 02:25:16;;;;;;;;;5.00;5.00;;;;;8.68;71.14;101042.72;5082352;27;45317;-63
2022/04/11 02:27:42;;;;;;;;;4.50;4.50;;;;;8.66;71.47;101041.03;5081650;27;45323;-64
2022/04/11 02:30:09;;;;;;;;;5.50;5.00;;;;;8.64;70.83;101035.88;5082182;28;46268;-64
2022/04/11 02:32:35;;;;;;;;;4.75;4.75;;;;;8.65;70.81;101029.81;5081799;27;45768;-64
2022/04/11 02:35:00;;;;;;;;;4.25;4.25;;;;;8.64;71.40;101025.50;5081523;27;45662;-64
2022/04/11 02:37:25;;;;;;;;;4.75;4.00;;;;;8.63;72.06;101028.97;5076205;28;45177;-63
2022/04/11 02:39:51;;;;;;;;;5.50;5.00;;;;;8.59;70.98;101027.28;5081972;27;46458;-64
2022/04/11 02:42:21;;;;;;;;;2.25;2.25;;;;;8.60;71.12;101029.00;5081861;27;45249;-64
2022/04/11 02:44:46;;;;;;;;;5.50;3.00;;;;;8.61;70.56;101027.25;5081987;27;45340;-63
2022/04/11 02:47:12;;;;;;;;;4.00;4.00;;;;;8.59;71.43;101016.94;5081484;27;45552;-63
2022/04/11 02:49:37;;;;;;;;;5.25;5.25;;;;;8.58;70.74;101027.31;5082028;27;46280;-63
2022/04/11 02:52:03;;;;;;;;;5.75;4.50;;;;;8.56;71.01;101014.38;5081834;27;45347;-63
2022/04/11 02:54:28;;;;;;;;;5.00;5.00;;;;;8.53;70.55;101011.84;5080591;28;45359;-64
2022/04/11 02:56:53;;;;;;;;;3.00;3.00;;;;;8.52;70.69;101010.13;5081442;27;45445;-64
2022/04/11 02:59:19;;;;;;;;;5.50;5.50;;;;;8.50;69.77;101007.56;5081801;27;45520;-63
2022/04/11 03:01:44;;;;;;;;;6.25;5.75;;;;;8.49;70.11;100999.81;5081519;27;45326;-64
2022/04/11 03:04:10;;;;;;;;;4.50;4.50;;;;;8.47;70.50;100991.22;5081688;27;45292;-63
2022/04/11 03:06:35;;;;;;;;;7.00;5.25;;;;;8.44;69.47;100984.34;5081350;27;45510;-64
2022/04/11 03:09:00;;;;;;;;;7.00;7.00;;;;;8.42;70.37;100986.13;5081596;27;45271;-63
2022/04/11 03:11:26;;;;;;;;;4.00;3.50;;;;;8.41;70.27;100981.81;5081127;27;45219;-64
2022/04/11 03:13:51;;;;;;;;;6.50;6.00;;;;;8.40;69.98;100979.22;5081592;27;45211;-64
2022/04/11 03:16:16;;;;;;;;;5.75;5.75;;;;;8.38;69.84;100970.63;5081227;27;45223;-64
2022/04/11 03:18:42;;;;;;;;;6.75;6.00;;;;;8.36;69.83;100967.22;5079770;28;47538;-64
2022/04/11 03:21:07;;;;;;;;;13.50;8.00;;;;;8.35;69.56;100970.69;5081290;27;45411;-64
2022/04/11 03:23:32;;;;;;;;;7.75;5.25;;;;;8.32;69.97;100968.97;5081419;27;45220;-64
2022/04/11 03:25:58;;;;;;;;;7.75;7.00;;;;;8.31;70.01;100968.97;5081143;28;45203;-65
2022/04/11 03:28:23;;;;;;;;;6.00;6.00;;;;;8.30;69.62;100967.28;5080958;27;45302;-64
2022/04/11 03:30:48;;;;;;;;;6.25;6.00;;;;;8.29;70.79;100975.91;5081269;27;45410;-64
2022/04/11 03:33:13;;;;;;;;;6.00;5.25;;;;;8.28;69.02;100976.78;5081087;27;45254;-64
2022/04/11 03:35:39;;;;;;;;;5.25;5.00;;;;;8.27;68.86;100981.13;5075165;27;45279;-64
2022/04/11 03:38:04;;;;;;;;;5.50;5.25;;;;;8.25;68.18;100977.69;5080254;28;45232;-64
2022/04/11 03:40:30;;;;;;;;;5.00;5.00;;;;;8.22;66.95;100970.84;5081081;27;45400;-64
2022/04/11 03:42:55;;;;;;;;;7.00;2.50;;;;;8.22;66.41;100976.00;5079769;28;45437;-64
2022/04/11 03:45:20;;;;;;;;;7.75;7.75;;;;;8.22;64.61;100975.16;5081047;27;45496;-64
2022/04/11 03:47:46;;;;;;;;;5.00;5.00;;;;;8.20;64.72;100971.72;5075823;28;47151;-63
2022/04/11 03:50:11;;;;;;;;;7.00;5.25;;;;;8.17;63.76;100967.44;5073417;28;45500;-64
2022/04/11 03:52:36;;;;;;;;;9.75;7.00;;;;;8.18;64.60;100960.53;5080763;27;45318;-63
2022/04/11 03:55:04;;;;;;;;;10.00;8.50;;;;;8.15;64.07;100942.44;5079603;28;45530;-64
2022/04/11 03:57:29;;;;;;;;;11.50;10.50;;;;;8.14;64.21;100944.19;5080344;27;45377;-63
2022/04/11 03:59:55;;;;;;;;;6.00;6.00;;;;;8.14;64.10;100945.91;5079412;28;45256;-63
2022/04/11 04:02:20;;;;;;;;;14.25;11.00;;;;;8.11;63.60;100946.81;5080489;27;45157;-66
2022/04/11 04:04:46;;;;;;;;;6.75;6.75;;;;;8.11;63.79;100939.06;5080464;27;45358;-63
2022/04/11 04:07:12;;;;;;;;;10.75;7.00;;;;;8.09;64.02;100932.19;5080409;27;45235;-64
2022/04/11 04:09:41;;;;;;;;;7.75;6.75;;;;;8.09;63.74;100935.63;5079215;28;45775;-64
2022/04/11 04:12:07;;;;;;;;;5.75;5.50;;;;;8.07;64.12;100926.19;5067288;28;45485;-64
2022/04/11 04:14:32;;;;;;;;;12.00;8.25;;;;;8.06;63.75;100925.34;5080469;27;45274;-64
2022/04/11 04:16:57;;;;;;;;;10.25;8.25;;;;;8.04;63.66;100927.09;5078650;28;47323;-64
2022/04/11 04:19:23;;;;;;;;;11.00;9.00;;;;;8.05;63.61;100925.34;5080197;27;45397;-63
2022/04/11 04:21:49;;;;;;;;;12.50;9.00;;;;;8.03;63.85;100927.97;5079729;27;45279;-64
2022/04/11 04:24:14;;;;;;;;;10.00;8.00;;;;;8.01;63.42;100924.53;5080327;27;45315;-63
2022/04/11 04:26:40;;;;;;;;;10.00;10.00;;;;;8.01;63.58;100926.25;5079985;27;45350;-65
2022/04/11 04:29:05;;;;;;;;;12.00;11.25;;;;;8.00;63.56;100927.13;5067585;27;45240;-65
2022/04/11 04:31:31;;;;;;;;;9.25;8.25;;;;;7.98;63.06;100926.28;5079104;28;45307;-63
2022/04/11 04:33:57;;;;;;;;;10.00;10.00;;;;;7.95;63.14;100914.25;5079916;27;45189;-63
2022/04/11 04:36:22;;;;;;;;;5.00;5.00;;;;;7.93;63.36;100911.69;5072778;27;46198;-63
2022/04/11 04:38:47;;;;;;;;;13.75;10.00;;;;;7.90;63.19;100906.56;5080256;27;45278;-63
2022/04/11 04:41:13;;;;;;;;;11.00;9.25;;;;;7.91;63.37;100902.25;5080117;27;45515;-63
2022/04/11 04:43:38;;;;;;;;;9.25;6.75;;;;;7.90;63.30;100895.38;5079769;27;45492;-63
2022/04/11 04:46:03;;;;;;;;;9.00;6.25;;;;;7.90;63.05;100895.38;5079640;27;45240;-62
2022/04/11 04:48:29;;;;;;;;;10.00;7.00;;;;;7.88;63.07;100894.53;5079937;27;45157;-62
2022/04/11 04:50:54;;;;;;;;;9.75;8.50;;;;;7.87;63.70;100904.03;5079868;27;45161;-62
2022/04/11 04:53:20;;;;;;;;;6.50;6.50;;;;;7.87;62.93;100910.94;5078649;28;45555;-62
2022/04/11 04:55:45;;;;;;;;;10.00;10.00;;;;;7.87;63.30;100916.97;5079634;27;46167;-62
2022/04/11 04:58:10;;;;;;;;;10.00;9.00;;;;;7.88;63.10;100920.41;5079688;27;45444;-62
2022/04/11 05:00:36;;;;;;;;;10.00;5.00;;;;;7.84;62.98;100910.97;5079640;27;45468;-62
2022/04/11 05:03:01;;;;;;;;;10.25;9.00;;;;;7.83;62.39;100920.47;5079619;27;45356;-62
2022/04/11 05:05:27;;;;;;;;;6.75;6.75;;;;;7.85;62.31;100929.06;5079391;27;46552;-63
2022/04/11 05:07:52;;;;;;;;;7.00;5.00;;;;;7.85;62.57;100928.22;5079588;27;45251;-63
2022/04/11 05:10:17;;;;;;;;;10.00;6.00;;;;;7.83;62.23;100933.41;5078149;28;45315;-63
2022/04/11 05:12:45;;;;;;;;;9.25;6.75;;;;;7.84;62.20;100929.94;5078224;28;45445;-63
2022/04/11 05:15:11;;;;;;;;;9.50;7.00;;;;;7.85;61.96;100929.06;5079246;28;45356;-64
2022/04/11 05:17:37;;;;;;;;;7.00;7.00;;;;;7.85;62.29;100923.03;5079371;27;45697;-64
2022/04/11 05:20:10;;;;;;;;;16.00;16.00;;;;;7.87;62.42;100921.28;5078113;28;45262;-63
2022/04/11 05:22:36;;;;;;;;;14.00;9.50;;;;;7.88;63.00;100923.84;5079260;28;45280;-63
2022/04/11 05:25:05;;;;;;;;;9.00;7.00;;;;;7.89;62.42;100924.72;5077641;28;47095;-64
2022/04/11 05:27:31;;;;;;;;;12.50;9.00;;;;;7.90;62.63;100918.66;5078930;27;45310;-64
2022/04/11 05:29:56;;;;;;;;;11.25;10.00;;;;;7.90;62.15;100914.34;5078763;28;45545;-64
2022/04/11 05:32:21;;;;;;;;;13.00;10.00;;;;;7.92;62.10;100911.72;5077767;28;45468;-64
2022/04/11 05:34:47;;;;;;;;;8.25;6.50;;;;;7.94;61.75;100910.81;5082429;27;45338;-63
2022/04/11 05:37:12;;;;;;;;;10.75;9.25;;;;;7.96;62.87;100908.19;5075852;27;45394;-63
2022/04/11 05:39:41;;;;;;;;;7.75;6.50;;;;;7.98;62.21;100909.03;5082645;27;45228;-63
2022/04/11 05:42:07;;;;;;;;;15.25;9.00;;;;;7.98;62.40;100909.03;5082399;27;45237;-65
2022/04/11 05:44:33;;;;;;;;;12.75;12.25;;;;;8.01;61.91;100902.97;5082401;27;45559;-63
2022/04/11 05:46:58;;;;;;;;;12.25;9.00;;;;;8.05;61.44;100899.47;5077584;27;45715;-65
2022/04/11 05:49:23;;;;;;;;;9.50;6.50;;;;;8.05;62.14;100899.47;5082488;28;45338;-65
2022/04/11 05:51:50;;;;;;;;;8.00;7.50;;;;;8.09;61.91;100902.00;5082912;27;45438;-63
2022/04/11 05:54:15;;;;;;;;;10.25;7.25;;;;;8.11;61.87;100910.59;5067881;27;45482;-61
2022/04/11 05:56:41;;;;;;;;;10.00;7.75;;;;;8.17;61.36;100914.81;5081940;27;45417;-62
2022/04/11 05:59:08;;;;;;;;;10.75;10.25;;;;;8.21;61.77;100919.09;5082800;27;45398;-61
2022/04/11 06:01:35;;;;;;;;;10.25;10.00;;;;;8.28;61.26;100909.47;5082466;28;45443;-62
2022/04/11 06:04:00;;;;;;;;;9.50;7.50;;;;;8.32;61.14;100913.72;5081655;27;45340;-62
2022/04/11 06:06:26;;;;;;;;;11.00;9.00;;;;;8.38;61.40;100911.06;5081705;27;45270;-63
2022/04/11 06:08:51;;;;;;;;;9.75;8.25;;;;;8.43;60.89;100912.72;5082268;27;45226;-65
2022/04/11 06:11:17;;;;;;;;;9.00;8.25;;;;;8.47;60.38;100911.78;5082076;27;45389;-62
2022/04/11 06:13:45;;;;;;;;;10.00;7.00;;;;;8.50;60.35;100916.06;5082177;27;46023;-62
2022/04/11 06:16:11;;;;;;;;;10.75;9.25;;;;;8.56;60.93;100907.31;5080569;28;45573;-66
2022/04/11 06:18:36;;;;;;;;;10.25;10.00;;;;;8.59;60.90;100913.31;5081788;27;45397;-65
2022/04/11 06:21:02;;;;;;;;;9.75;7.00;;;;;8.63;60.08;100917.59;5081525;27;45460;-65
2022/04/11 06:23:27;;;;;;;;;8.25;8.25;;;;;8.67;59.76;100915.78;5081834;27;46463;-65
2022/04/11 06:25:52;;;;;;;;;12.25;6.75;;;;;8.68;60.05;100908.00;5081674;28;45430;-65
2022/04/11 06:28:18;;;;;;;;;5.50;5.50;;;;;8.71;60.21;100907.94;5081017;27;45446;-65
2022/04/11 06:30:43;;;;;;;;;8.50;8.50;;;;;8.76;60.13;100920.81;5081388;27;45536;-66
2022/04/11 06:33:09;;;;;;;;;10.25;9.75;;;;;8.80;60.03;100912.94;5081162;27;45320;-65
2022/04/11 06:35:34;;;;;;;;;11.25;5.25;;;;;8.86;59.85;100913.75;5076368;27;45486;-65
2022/04/11 06:37:59;;;;;;;;;7.00;7.00;;;;;8.89;59.19;100900.72;5080415;27;45252;-65
2022/04/11 06:40:25;;;;;;;;;5.50;5.50;;;;;8.93;59.59;100899.78;5081794;27;45460;-65
2022/04/11 06:42:50;;;;;;;;;7.50;5.00;;;;;8.95;59.29;100892.81;5080916;27;45338;-65
2022/04/11 06:45:15;;;;;;;;;9.00;8.00;;;;;8.96;59.71;100892.78;5078946;27;45287;-65
2022/04/11 06:47:42;;;;;;;;;5.50;5.25;;;;;8.95;60.31;100885.91;5080780;27;45521;-65
2022/04/11 06:50:08;;;;;;;;;7.50;7.50;;;;;9.02;59.20;100889.25;5081426;27;45242;-65
2022/04/11 06:52:34;;;;;;;;;7.50;7.50;;;;;9.10;59.12;100879.59;5081014;27;45325;-65
2022/04/11 06:54:59;;;;;;;;;14.00;12.00;;;;;9.22;59.38;100873.31;5080703;27;45179;-65
2022/04/11 06:57:25;;;;;;;;;16.25;12.00;;;;;9.35;58.94;100874.75;5080632;27;45289;-65
2022/04/11 06:59:50;;;;;;;;;11.00;8.00;;;;;9.45;58.94;100881.50;5081532;28;45284;-65
2022/04/11 07:02:16;;;;;;;;;7.00;4.00;;;;;9.49;57.78;100874.50;5080843;27;45300;-66
2022/04/11 07:04:42;;;;;;;;;11.00;7.50;;;;;9.56;57.43;100879.50;5081401;27;45306;-65
2022/04/11 07:07:07;;;;;;;;;7.75;7.75;;;;;9.61;57.04;100874.22;5081215;27;45377;-65
2022/04/11 07:09:33;;;;;;;;;11.75;10.00;;;;;9.71;57.29;100883.53;5081157;28;45302;-65
2022/04/11 07:11:58;;;;;;;;;11.50;8.50;;;;;9.78;57.36;100872.13;5080663;27;46619;-65
2022/04/11 07:14:25;;;;;;;;;10.25;8.25;;;;;9.82;56.97;100868.59;5081007;28;45429;-65
2022/04/11 07:16:52;;;;;;;;;11.25;8.25;;;;;9.85;56.48;100855.53;5079133;28;45296;-65
2022/04/11 07:19:18;;;;;;;;;12.00;10.00;;;;;9.96;56.89;100848.34;5081033;27;45477;-66
2022/04/11 07:21:45;;;;;;;;;16.50;11.50;;;;;10.03;57.40;100843.88;5079548;27;47192;-66
2022/04/11 07:24:11;;;;;;;;;14.00;8.75;;;;;10.05;56.72;100848.16;5080609;27;45441;-66
2022/04/11 07:26:36;;;;;;;;;8.50;6.75;;;;;10.15;57.78;100840.13;5080950;27;45755;-65
2022/04/11 07:29:02;;;;;;;;;5.00;4.00;;;;;10.12;56.78;100842.78;5080603;27;45483;-66
2022/04/11 07:31:30;;;;;;;;;11.25;10.75;;;;;10.14;56.72;100830.63;5080879;27;45286;-65
2022/04/11 07:33:56;;;;;;;;;9.00;8.75;;;;;10.30;56.66;100842.38;5068261;27;46199;-65
2022/04/11 07:36:21;;;;;;;;;10.50;10.50;;;;;10.42;56.79;100830.84;5073441;28;45375;-65
2022/04/11 07:38:47;;;;;;;;;12.25;7.75;;;;;10.58;55.98;100842.53;5079413;28;45567;-65
2022/04/11 07:41:12;;;;;;;;;8.00;7.25;;;;;10.65;55.69;100834.56;5080428;27;45379;-66
2022/04/11 07:43:38;;;;;;;;;7.50;7.50;;;;;10.76;55.45;100836.00;5080944;27;45143;-66
2022/04/11 07:46:05;;;;;;;;;6.00;6.00;;;;;10.80;55.10;100827.22;5078770;28;45485;-66
2022/04/11 07:48:33;;;;;;;;;8.50;7.00;;;;;10.84;55.38;100832.31;5080574;27;45149;-66
2022/04/11 07:50:59;;;;;;;;;9.75;8.75;;;;;10.97;54.82;100838.03;5078890;28;47184;-66
2022/04/11 07:53:24;;;;;;;;;6.75;4.00;;;;;11.07;55.16;100842.09;5080501;28;45386;-66
2022/04/11 07:55:49;;;;;;;;;5.75;5.75;;;;;11.17;55.04;100837.47;5080079;27;45308;-66
2022/04/11 07:58:16;;;;;;;;;6.00;6.00;;;;;11.25;55.04;100833.75;5080024;27;45318;-66
2022/04/11 08:00:42;;;;;;;;;8.50;8.00;;;;;11.36;54.33;100827.38;5080412;27;46208;-66
2022/04/11 08:03:08;;;;;;;;;8.75;8.00;;;;;11.45;54.76;100821.94;5080238;27;45152;-66
2022/04/11 08:05:33;;;;;;;;;8.25;7.00;;;;;11.54;54.63;100827.69;5079092;28;45297;-66
2022/04/11 08:07:59;;;;;;;;;7.50;5.25;;;;;11.63;54.80;100815.31;5080503;27;45237;-66
2022/04/11 08:10:25;;;;;;;;;8.75;7.00;;;;;11.67;53.58;100817.78;5080243;27;47081;-65
2022/04/11 08:12:58;;;;;;;;;10.25;8.50;;;;;11.77;54.06;100811.38;5080163;27;45465;-65
2022/04/11 08:15:26;;;;;;;;;13.25;6.50;;;;;11.83;53.90;100807.78;5067674;28;45337;-65
2022/04/11 08:17:53;;;;;;;;;7.75;7.00;;;;;11.93;53.37;100800.50;5078409;28;45871;-65
2022/04/11 08:20:19;;;;;;;;;8.25;8.25;;;;;11.95;53.25;100803.91;5080165;27;46163;-66
2022/04/11 08:22:45;;;;;;;;;9.00;8.00;;;;;11.99;52.96;100803.75;5080033;27;45334;-66
2022/04/11 08:25:11;;;;;;;;;10.25;9.75;;;;;12.08;52.97;100805.22;5080025;28;45236;-66
2022/04/11 08:27:36;;;;;;;;;10.50;8.00;;;;;12.23;53.31;100798.66;5076733;28;45749;-65
2022/04/11 08:30:04;;;;;;;;;9.00;8.25;;;;;12.43;53.09;100809.28;5080216;28;45364;-66
2022/04/11 08:33:01;;;;;;;;;6.25;6.25;;;;;12.51;52.63;100806.41;5079871;28;45234;-66
2022/04/11 08:35:27;;;;;;;;;8.25;6.50;;;;;12.54;53.70;100803.69;5058828;28;45384;-66
2022/04/11 08:37:52;;;;;;;;;6.75;5.00;;;;;12.63;52.14;100805.97;5077957;28;45569;-66
2022/04/11 08:40:19;;;;;;;;;5.75;5.75;;;;;12.76;51.59;100796.81;5079936;27;46438;-66
2022/04/11 08:42:45;;;;;;;;;7.50;6.25;;;;;12.88;51.97;100800.75;5079800;27;45251;-66
2022/04/11 08:45:17;;;;;;;;;8.50;7.50;;;;;12.96;50.98;100783.91;5080279;27;45331;-66
2022/04/11 08:47:42;;;;;;;;;10.25;6.25;;;;;13.07;51.75;100794.81;5073289;27;45251;-66
2022/04/11 08:50:09;;;;;;;;;8.50;7.25;;;;;13.19;51.32;100795.28;5072858;27;45482;-66
2022/04/11 08:52:36;;;;;;;;;7.75;5.00;;;;;13.28;51.20;100782.75;5079768;27;45717;-66
2022/04/11 08:55:02;;;;;;;;;8.00;6.00;;;;;13.37;51.25;100778.91;5079899;27;45293;-66
2022/04/11 08:57:28;;;;;;;;;5.75;5.75;;;;;13.44;50.85;100759.53;5066129;27;45559;-66
2022/04/11 08:59:53;;;;;;;;;9.75;6.75;;;;;13.55;51.82;100762.53;5079304;27;46406;-66
2022/04/11 09:02:18;;;;;;;;;10.00;6.75;;;;;13.61;49.71;100751.00;5079294;28;45166;-66
2022/04/11 09:04:56;;;;;;;;;8.00;6.25;;;;;13.70;50.10;100745.44;5077974;28;45189;-66
2022/04/11 09:07:23;;;;;;;;;6.75;5.00;;;;;13.85;51.30;100741.34;5079873;27;45344;-66
2022/04/11 09:09:49;;;;;;;;;6.75;6.00;;;;;13.92;50.38;100738.41;5082712;27;45364;-66
2022/04/11 09:12:17;;;;;;;;;6.00;6.00;;;;;14.07;50.17;100746.53;5083076;27;45372;-66
2022/04/11 09:14:44;;;;;;;;;11.75;8.75;;;;;14.17;49.53;100746.06;5083170;27;45403;-66
2022/04/11 09:17:09;;;;;;;;;8.75;8.75;;;;;14.25;49.98;100744.00;5082813;27;45472;-66
2022/04/11 09:19:36;;;;;;;;;6.50;5.25;;;;;14.35;49.26;100749.66;5082713;27;46300;-65
2022/04/11 09:22:02;;;;;;;;;7.00;4.25;;;;;14.44;49.50;100743.25;5083225;28;45419;-66
2022/04/11 09:24:30;;;;;;;;;8.00;6.00;;;;;14.49;48.80;100749.13;5081508;28;45480;-65
2022/04/11 09:26:56;;;;;;;;;3.00;3.00;;;;;14.53;48.99;100748.91;5082970;27;45208;-66
2022/04/11 09:29:27;;;;;;;;;4.25;4.00;;;;;14.64;47.74;100742.38;5082534;27;46151;-66
2022/04/11 09:31:53;;;;;;;;;5.25;4.75;;;;;14.74;47.16;100738.41;5078146;28;45385;-66
2022/04/11 09:34:27;;;;;;;;;5.75;5.75;;;;;14.78;47.31;100737.34;5078607;28;45420;-66
2022/04/11 09:36:58;;;;;;;;;8.75;5.75;;;;;14.83;47.95;100730.19;5076401;27;45335;-66
2022/04/11 09:39:25;;;;;;;;;6.50;6.50;;;;;14.91;48.00;100726.28;5082524;27;47245;-66
2022/04/11 09:41:52;;;;;;;;;4.75;4.75;;;;;15.05;47.95;100724.81;5082601;27;45268;-66
2022/04/11 09:44:19;;;;;;;;;8.00;5.50;;;;;15.16;47.44;100712.91;5082663;28;45333;-65
2022/04/11 09:46:44;;;;;;;;;6.00;6.00;;;;;15.23;47.28;100713.47;5082458;27;45455;-65
2022/04/11 09:49:10;;;;;;;;;6.50;5.00;;;;;15.36;47.66;100709.34;5082198;27;45398;-65
2022/04/11 09:51:36;;;;;;;;;6.50;5.00;;;;;15.53;48.18;100709.38;5082803;27;45288;-65
2022/04/11 09:54:24;;;;;;;;;4.00;4.00;;;;;15.59;46.48;100704.78;5082478;27;45539;-65
2022/04/11 09:56:50;;;;;;;;;4.00;4.00;;;;;15.68;46.36;100702.59;5080894;28;46094;-65
2022/04/11 09:59:16;;;;;;;;;4.00;4.00;;;;;15.76;46.54;100694.34;5082336;27;46649;-66
2022/04/11 10:01:44;;;;;;;;;4.00;4.00;;;;;15.79;45.93;100691.56;5081922;28;45370;-67
2022/04/11 10:04:10;;;;;;;;;5.00;5.00;;;;;15.79;46.28;100699.41;5082605;27;45283;-66
2022/04/11 10:06:36;;;;;;;;;4.00;4.00;;;;;15.83;45.53;100703.63;5079625;27;45587;-66
2022/04/11 10:09:02;;;;;;;;;4.00;4.00;;;;;15.97;45.32;100703.75;5082097;27;46635;-66
2022/04/11 10:11:28;;;;;;;;;3.75;3.75;;;;;16.13;45.78;100691.56;5082295;28;45837;-66
2022/04/11 10:13:55;;;;;;;;;5.75;4.50;;;;;16.30;46.00;100695.94;5082449;27;45291;-67
2022/04/11 10:16:22;;;;;;;;;3.50;3.00;;;;;16.45;45.59;100698.72;5081757;27;45572;-67
2022/04/11 10:18:48;;;;;;;;;6.25;5.00;;;;;16.56;44.76;100694.56;5081173;27;45433;-67
2022/04/11 10:21:15;;;;;;;;;5.25;5.25;;;;;16.65;44.74;100685.38;5081059;27;45344;-66
2022/04/11 10:24:03;;;;;;;;;6.75;3.50;;;;;16.68;43.46;100693.13;5081915;27;45260;-67
2022/04/11 10:26:44;;;;;;;;;3.00;3.00;;;;;16.63;42.06;100695.97;5081586;27;45378;-68
2022/04/11 10:29:33;;;;;;;;;5.00;4.75;;;;;16.62;41.89;100698.66;5081343;27;45457;-67
2022/04/11 10:32:10;;;;;;;;;3.00;3.00;;;;;16.60;42.74;100687.38;5070885;28;45569;-67
2022/04/11 10:34:57;;;;;;;;;2.00;2.00;;;;;16.69;43.07;100689.56;5081924;27;45239;-67
2022/04/11 10:37:25;;;;;;;;;2.25;2.25;;;;;16.79;43.94;100671.53;5075379;27;45550;-67
2022/04/11 10:39:52;;;;;;;;;4.00;3.00;;;;;16.87;42.93;100661.47;5081562;28;46413;-67
2022/04/11 10:42:25;;;;;;;;;3.50;1.00;;;;;16.93;44.03;100663.75;5081357;27;45619;-68
2022/04/11 10:44:56;;;;;;;;;2.50;2.50;;;;;16.87;42.29;100657.06;5078655;27;45247;-68
2022/04/11 10:47:32;;;;;;;;;6.00;4.50;;;;;16.91;42.09;100657.75;5077820;28;45332;-66
2022/04/11 10:49:57;;;;;;;;;3.00;0.00;;;;;17.05;42.28;100659.63;5088290;27;46892;-67
2022/04/11 10:52:37;;;;;;;;;5.00;4.00;;;;;17.14;42.45;100654.69;5081210;27;45353;-66
2022/04/11 10:55:17;;;;;;;;;3.75;3.75;;;;;17.19;42.26;100646.53;5081476;27;45310;-66
2022/04/11 10:57:44;;;;;;;;;5.75;4.00;;;;;17.17;41.28;100633.50;5069637;28;45520;-66
2022/04/11 11:00:22;;;;;;;;;3.00;2.50;;;;;17.15;41.49;100647.66;5081250;27;45701;-66
2022/04/11 11:02:57;;;;;;;;;3.50;3.00;;;;;17.25;40.75;100641.81;5076371;28;45477;-66
2022/04/11 11:05:25;;;;;;;;;5.75;4.00;;;;;17.26;40.43;100640.03;5079172;28;45385;-66
2022/04/11 11:08:13;;;;;;;;;6.00;3.00;;;;;17.32;41.54;100635.25;5081328;27;45528;-66
2022/04/11 11:10:57;;;;;;;;;7.00;7.00;;;;;17.40;42.01;100624.31;5069460;28;46197;-66
2022/04/11 11:13:34;;;;;;;;;6.00;4.00;;;;;17.34;41.22;100608.91;5080841;27;45720;-66
2022/04/11 11:16:12;;;;;;;;;4.50;3.75;;;;;17.38;41.08;100613.03;5081320;27;45394;-66
2022/04/11 11:18:50;;;;;;;;;2.75;2.75;;;;;17.45;40.24;100617.03;5080849;28;45591;-66
2022/04/11 11:21:19;;;;;;;;;4.00;4.00;;;;;17.50;39.35;100622.00;5080697;27;46488;-66
2022/04/11 11:24:03;;;;;;;;;3.75;3.75;;;;;17.59;40.33;100622.31;5080942;28;45405;-66
2022/04/11 11:26:49;;;;;;;;;6.00;4.00;;;;;17.64;40.09;100628.16;5080809;28;45318;-66